createdAt,value
2019-05-12T00:03:23.730Z,97252.09
2019-05-12T00:13:23.427Z,97252.81
2019-05-12T00:23:27.835Z,97234.57
2019-05-12T00:33:23.219Z,97220.09
2019-05-12T00:43:23.108Z,97214.62
2019-05-12T00:53:36.111Z,97213.16
2019-05-12T01:03:21.924Z,97203.74
2019-05-12T01:13:21.556Z,97202.88
2019-05-12T01:23:23.404Z,97214.38
2019-05-12T01:33:20.888Z,97227.39
2019-05-12T01:43:21.481Z,97227.80
2019-05-12T01:53:20.892Z,97252.61
2019-05-12T02:03:20.902Z,97273.28
2019-05-12T02:13:20.839Z,97272.48
2019-05-12T02:23:21.787Z,97275.92
2019-05-12T02:33:26.629Z,97256.71
2019-05-12T02:43:26.533Z,97267.96
2019-05-12T02:53:27.235Z,97281.33
2019-05-12T03:03:26.673Z,97285.19
2019-05-12T03:13:26.361Z,97304.33
2019-05-12T03:23:25.567Z,97308.44
2019-05-12T03:33:33.132Z,97309.55
2019-05-12T03:43:25.040Z,97320.75
2019-05-12T03:53:25.215Z,97326.69
2019-05-12T04:03:24.972Z,97353.98
2019-05-12T04:13:26.445Z,97364.23
2019-05-12T04:23:24.861Z,97371.95
2019-05-12T04:33:25.764Z,97385.25
2019-05-12T04:43:25.455Z,97403.05
2019-05-12T04:53:25.133Z,97409.18
2019-05-12T05:03:24.702Z,97434.50
2019-05-12T05:13:24.408Z,97442.47
2019-05-12T05:23:24.041Z,97445.81
2019-05-12T05:33:23.629Z,97458.70
2019-05-12T05:43:21.318Z,97466.16
2019-05-12T05:53:21.442Z,97472.39
2019-05-12T06:03:24.595Z,97486.66
2019-05-12T06:13:21.180Z,97487.87
2019-05-12T06:23:19.882Z,97487.12
2019-05-12T06:33:22.649Z,97505.73
2019-05-12T06:54:42.591Z,97524.45
2019-05-12T07:39:44.868Z,97559.84
2019-05-12T08:47:44.641Z,97634.66
2019-05-12T09:08:45.086Z,97680.34
2019-05-12T09:18:39.554Z,97696.80
2019-05-12T09:28:47.482Z,97707.72
2019-05-12T09:38:41.107Z,97711.02
2019-05-12T09:59:19.043Z,97745.09
2019-05-12T10:09:15.619Z,97760.21
2019-05-12T10:19:14.523Z,97773.50
2019-05-12T10:29:20.333Z,97792.71
2019-05-12T10:39:15.436Z,97801.20
2019-05-12T10:49:15.108Z,97826.00
2019-05-12T10:59:29.101Z,97847.80
2019-05-12T11:09:21.263Z,97858.87
2019-05-12T11:19:16.367Z,97882.80
2019-05-12T11:29:16.423Z,97898.98
2019-05-12T11:39:16.923Z,97913.98
2019-05-12T11:49:21.628Z,97935.16
2019-05-12T11:59:17.398Z,97960.66
2019-05-12T12:09:18.844Z,97974.28
2019-05-12T12:19:17.024Z,97998.36
2019-05-12T12:29:16.788Z,98016.67
2019-05-12T12:39:16.166Z,98030.62
2019-05-12T12:49:16.109Z,98055.34
2019-05-12T12:59:15.297Z,98055.38
2019-05-12T13:09:22.660Z,98080.67
2019-05-12T13:19:17.297Z,98090.09
2019-05-12T13:29:17.663Z,98110.41
2019-05-12T13:39:17.961Z,98116.30
2019-05-12T13:49:18.344Z,98120.41
2019-05-12T13:59:21.109Z,98121.98
2019-05-12T14:09:19.852Z,98133.87
2019-05-12T14:19:23.332Z,98148.90
2019-05-12T14:29:26.619Z,98172.59
2019-05-12T14:39:23.932Z,98184.77
2019-05-12T14:49:26.435Z,98186.30
2019-05-12T14:59:23.734Z,98210.16
2019-05-12T15:09:24.635Z,98207.54
2019-05-12T15:19:25.887Z,98229.69
2019-05-12T15:29:24.465Z,98229.45
2019-05-12T15:39:26.298Z,98255.16
2019-05-12T15:49:26.342Z,98271.92
2019-05-12T15:59:25.643Z,98287.33
2019-05-12T16:09:25.815Z,98296.13
2019-05-12T16:19:26.582Z,98312.84
2019-05-12T16:29:26.225Z,98312.84
